sensor_id;sensor_type;location;lat;lon;timestamp;temperature;humidity
7512;DHT22;9999;48.780;9.146;2024-01-06T00:02:14;5.10;99.90
7512;DHT22;9999;48.780;9.146;2024-01-06T00:04:41;5.10;99.90
7512;DHT22;9999;48.780;9.146;2024-01-06T00:07:08;5.10;99.90
7512;DHT22;9999;48.780;9.146;2024-01-06T00:09:35;5.10;99.90
7512;DHT22;9999;48.780;9.146;2024-01-06T00:12:03;5.10;99.90
7512;DHT22;9999;48.780;9.146;2024-01-06T00:14:30;5.10;99.90
7512;DHT22;9999;48.780;9.146;2024-01-06T00:16:58;5.10;99.90
7512;DHT22;9999;48.780;9.146;2024-01-06T00:19:24;5.10;99.90
7512;DHT22;9999;48.780;9.146;2024-01-06T00:21:51;5.10;99.90
7512;DHT22;9999;48.780;9.146;2024-01-06T00:24:18;5.10;99.90
7512;DHT22;9999;48.780;9.146;2024-01-06T00:26:44;5.10;99.90
7512;DHT22;9999;48.780;9.146;2024-01-06T00:29:11;5.20;99.90
7512;DHT22;9999;48.780;9.146;2024-01-06T00:31:38;5.10;99.90
7512;DHT22;9999;48.780;9.146;2024-01-06T00:34:06;5.10;99.90
7512;DHT22;9999;48.780;9.146;2024-01-06T00:36:33;5.10;99.90
7512;DHT22;9999;48.780;9.146;2024-01-06T00:39:00;5.20;99.90
7512;DHT22;9999;48.780;9.146;2024-01-06T00:41:27;5.10;99.90
7512;DHT22;9999;48.780;9.146;2024-01-06T00:43:53;5.20;99.90
7512;DHT22;9999;48.780;9.146;2024-01-06T00:46:20;5.10;99.90
7512;DHT22;9999;48.780;9.146;2024-01-06T00:48:47;5.10;99.90
7512;DHT22;9999;48.780;9.146;2024-01-06T00:51:15;5.10;99.90
7512;DHT22;9999;48.780;9.146;2024-01-06T00:53:42;5.10;99.90
7512;DHT22;9999;48.780;9.146;2024-01-06T00:56:09;5.00;99.90
7512;DHT22;9999;48.780;9.146;2024-01-06T00:58:35;5.10;99.90
7512;DHT22;9999;48.780;9.146;2024-01-06T01:01:01;5.10;99.90
7512;DHT22;9999;48.780;9.146;2024-01-06T01:03:30;5.20;99.90
7512;DHT22;9999;48.780;9.146;2024-01-06T01:05:56;5.10;99.90
7512;DHT22;9999;48.780;9.146;2024-01-06T01:08:24;5.30;99.90
7512;DHT22;9999;48.780;9.146;2024-01-06T01:10:51;5.20;99.90
7512;DHT22;9999;48.780;9.146;2024-01-06T01:13:18;5.10;99.90
7512;DHT22;9999;48.780;9.146;2024-01-06T01:15:50;5.10;99.90
7512;DHT22;9999;48.780;9.146;2024-01-06T01:18:17;5.10;99.90
7512;DHT22;9999;48.780;9.146;2024-01-06T01:20:44;5.20;99.90
7512;DHT22;9999;48.780;9.146;2024-01-06T01:23:11;5.20;99.90
7512;DHT22;9999;48.780;9.146;2024-01-06T01:25:39;5.20;99.90
7512;DHT22;9999;48.780;9.146;2024-01-06T01:28:06;5.10;99.90
7512;DHT22;9999;48.780;9.146;2024-01-06T01:30:32;5.10;99.90
7512;DHT22;9999;48.780;9.146;2024-01-06T01:32:59;5.10;99.90
7512;DHT22;9999;48.780;9.146;2024-01-06T01:35:26;5.10;99.90
7512;DHT22;9999;48.780;9.146;2024-01-06T01:37:53;5.10;99.90
7512;DHT22;9999;48.780;9.146;2024-01-06T01:40:20;5.10;99.90
7512;DHT22;9999;48.780;9.146;2024-01-06T01:42:48;5.10;99.90
7512;DHT22;9999;48.780;9.146;2024-01-06T01:45:14;5.10;99.90
7512;DHT22;9999;48.780;9.146;2024-01-06T01:47:41;5.10;99.90
7512;DHT22;9999;48.780;9.146;2024-01-06T01:50:08;5.10;99.90
7512;DHT22;9999;48.780;9.146;2024-01-06T01:52:36;5.00;99.90
7512;DHT22;9999;48.780;9.146;2024-01-06T01:55:04;4.90;99.90
7512;DHT22;9999;48.780;9.146;2024-01-06T01:57:31;5.00;99.90
7512;DHT22;9999;48.780;9.146;2024-01-06T02:00:00;5.10;99.90
7512;DHT22;9999;48.780;9.146;2024-01-06T02:02:37;5.10;99.90
7512;DHT22;9999;48.780;9.146;2024-01-06T02:05:04;5.10;99.90
7512;DHT22;9999;48.780;9.146;2024-01-06T02:07:31;5.00;99.90
7512;DHT22;9999;48.780;9.146;2024-01-06T02:09:58;4.90;99.90
7512;DHT22;9999;48.780;9.146;2024-01-06T02:12:25;5.00;99.90
7512;DHT22;9999;48.780;9.146;2024-01-06T02:14:51;4.90;99.90
7512;DHT22;9999;48.780;9.146;2024-01-06T02:17:22;5.00;99.90
7512;DHT22;9999;48.780;9.146;2024-01-06T02:19:49;5.00;99.90
7512;DHT22;9999;48.780;9.146;2024-01-06T02:22:17;5.00;99.90
7512;DHT22;9999;48.780;9.146;2024-01-06T02:24:43;5.00;99.90
7512;DHT22;9999;48.780;9.146;2024-01-06T02:27:10;5.00;99.90
7512;DHT22;9999;48.780;9.146;2024-01-06T02:29:37;5.00;99.90
7512;DHT22;9999;48.780;9.146;2024-01-06T02:32:04;4.90;99.90
7512;DHT22;9999;48.780;9.146;2024-01-06T02:34:31;4.90;99.90
7512;DHT22;9999;48.780;9.146;2024-01-06T02:36:58;4.90;99.90
7512;DHT22;9999;48.780;9.146;2024-01-06T02:39:26;4.90;99.90
7512;DHT22;9999;48.780;9.146;2024-01-06T02:41:53;4.90;99.90
7512;DHT22;9999;48.780;9.146;2024-01-06T02:44:20;4.90;99.90
7512;DHT22;9999;48.780;9.146;2024-01-06T02:46:47;4.90;99.90
7512;DHT22;9999;48.780;9.146;2024-01-06T02:49:14;4.90;99.90
7512;DHT22;9999;48.780;9.146;2024-01-06T02:51:41;4.80;99.90
7512;DHT22;9999;48.780;9.146;2024-01-06T02:54:08;4.80;99.90
7512;DHT22;9999;48.780;9.146;2024-01-06T02:56:36;4.80;99.90
7512;DHT22;9999;48.780;9.146;2024-01-06T02:59:03;4.90;99.90
7512;DHT22;9999;48.780;9.146;2024-01-06T03:01:32;4.90;99.90
7512;DHT22;9999;48.780;9.146;2024-01-06T03:03:58;4.90;99.90
7512;DHT22;9999;48.780;9.146;2024-01-06T03:06:25;4.90;99.90
7512;DHT22;9999;48.780;9.146;2024-01-06T03:08:52;4.90;99.90
7512;DHT22;9999;48.780;9.146;2024-01-06T03:11:19;4.90;99.90
7512;DHT22;9999;48.780;9.146;2024-01-06T03:13:47;4.80;99.90
7512;DHT22;9999;48.780;9.146;2024-01-06T03:16:14;4.90;99.90
7512;DHT22;9999;48.780;9.146;2024-01-06T03:18:40;4.90;99.90
7512;DHT22;9999;48.780;9.146;2024-01-06T03:21:16;4.80;99.90
7512;DHT22;9999;48.780;9.146;2024-01-06T03:23:43;4.70;99.90
7512;DHT22;9999;48.780;9.146;2024-01-06T03:26:10;4.80;99.90
7512;DHT22;9999;48.780;9.146;2024-01-06T03:28:37;4.70;99.90
7512;DHT22;9999;48.780;9.146;2024-01-06T03:31:05;4.80;99.90
7512;DHT22;9999;48.780;9.146;2024-01-06T03:33:31;4.80;99.90
7512;DHT22;9999;48.780;9.146;2024-01-06T03:35:58;4.70;99.90
7512;DHT22;9999;48.780;9.146;2024-01-06T03:38:25;4.80;99.90
7512;DHT22;9999;48.780;9.146;2024-01-06T03:40:52;4.80;99.90
7512;DHT22;9999;48.780;9.146;2024-01-06T03:43:19;4.80;99.90
7512;DHT22;9999;48.780;9.146;2024-01-06T03:45:45;4.80;99.90
7512;DHT22;9999;48.780;9.146;2024-01-06T03:48:13;4.70;99.90
7512;DHT22;9999;48.780;9.146;2024-01-06T03:50:40;4.80;99.90
7512;DHT22;9999;48.780;9.146;2024-01-06T03:53:07;4.80;99.90
7512;DHT22;9999;48.780;9.146;2024-01-06T03:55:34;4.80;99.90
7512;DHT22;9999;48.780;9.146;2024-01-06T03:58:00;4.80;99.90
7512;DHT22;9999;48.780;9.146;2024-01-06T04:00:27;4.80;99.90
7512;DHT22;9999;48.780;9.146;2024-01-06T04:02:54;4.80;99.90
7512;DHT22;9999;48.780;9.146;2024-01-06T04:05:22;4.80;99.90
7512;DHT22;9999;48.780;9.146;2024-01-06T04:07:49;4.70;99.90
7512;DHT22;9999;48.780;9.146;2024-01-06T04:10:15;4.70;99.90
7512;DHT22;9999;48.780;9.146;2024-01-06T04:12:42;4.70;99.90
7512;DHT22;9999;48.780;9.146;2024-01-06T04:15:09;4.70;99.90
7512;DHT22;9999;48.780;9.146;2024-01-06T04:17:35;4.70;99.90
7512;DHT22;9999;48.780;9.146;2024-01-06T04:20:06;4.70;99.90
7512;DHT22;9999;48.780;9.146;2024-01-06T04:22:34;4.70;99.90
7512;DHT22;9999;48.780;9.146;2024-01-06T04:25:01;4.70;99.90
7512;DHT22;9999;48.780;9.146;2024-01-06T04:27:28;4.70;99.90
7512;DHT22;9999;48.780;9.146;2024-01-06T04:29:54;4.70;99.90
7512;DHT22;9999;48.780;9.146;2024-01-06T04:32:21;4.70;99.90
7512;DHT22;9999;48.780;9.146;2024-01-06T04:34:48;4.60;99.90
7512;DHT22;9999;48.780;9.146;2024-01-06T04:37:15;4.60;99.90
7512;DHT22;9999;48.780;9.146;2024-01-06T04:39:43;4.50;99.90
7512;DHT22;9999;48.780;9.146;2024-01-06T04:42:10;4.60;99.90
7512;DHT22;9999;48.780;9.146;2024-01-06T04:44:37;4.50;99.90
7512;DHT22;9999;48.780;9.146;2024-01-06T04:47:04;4.50;99.90
7512;DHT22;9999;48.780;9.146;2024-01-06T04:49:30;4.50;99.90
7512;DHT22;9999;48.780;9.146;2024-01-06T04:51:57;4.50;99.90
7512;DHT22;9999;48.780;9.146;2024-01-06T04:54:24;4.50;99.90
7512;DHT22;9999;48.780;9.146;2024-01-06T04:56:52;4.40;99.90
7512;DHT22;9999;48.780;9.146;2024-01-06T04:59:19;4.30;99.90
7512;DHT22;9999;48.780;9.146;2024-01-06T05:01:46;4.40;99.90
7512;DHT22;9999;48.780;9.146;2024-01-06T05:04:13;4.40;99.90
7512;DHT22;9999;48.780;9.146;2024-01-06T05:06:39;4.40;99.90
7512;DHT22;9999;48.780;9.146;2024-01-06T05:09:06;4.40;99.90
7512;DHT22;9999;48.780;9.146;2024-01-06T05:11:33;4.40;99.90
7512;DHT22;9999;48.780;9.146;2024-01-06T05:14:01;4.40;99.90
7512;DHT22;9999;48.780;9.146;2024-01-06T05:16:28;4.40;99.90
7512;DHT22;9999;48.780;9.146;2024-01-06T05:18:55;4.50;99.90
7512;DHT22;9999;48.780;9.146;2024-01-06T05:21:21;4.40;99.90
7512;DHT22;9999;48.780;9.146;2024-01-06T05:23:48;4.50;99.90
7512;DHT22;9999;48.780;9.146;2024-01-06T05:26:15;4.50;99.90
7512;DHT22;9999;48.780;9.146;2024-01-06T05:28:42;4.40;99.90
7512;DHT22;9999;48.780;9.146;2024-01-06T05:31:10;4.50;99.90
7512;DHT22;9999;48.780;9.146;2024-01-06T05:33:37;4.50;99.90
7512;DHT22;9999;48.780;9.146;2024-01-06T05:36:04;4.40;99.90
7512;DHT22;9999;48.780;9.146;2024-01-06T05:38:31;4.40;99.90
7512;DHT22;9999;48.780;9.146;2024-01-06T05:40:57;4.30;99.90
7512;DHT22;9999;48.780;9.146;2024-01-06T05:43:24;4.30;99.90
7512;DHT22;9999;48.780;9.146;2024-01-06T05:45:51;4.40;99.90
7512;DHT22;9999;48.780;9.146;2024-01-06T05:48:19;4.40;99.90
7512;DHT22;9999;48.780;9.146;2024-01-06T05:50:46;4.50;99.90
7512;DHT22;9999;48.780;9.146;2024-01-06T05:53:13;4.50;99.90
7512;DHT22;9999;48.780;9.146;2024-01-06T05:55:43;4.50;99.90
7512;DHT22;9999;48.780;9.146;2024-01-06T05:58:10;4.40;99.90
7512;DHT22;9999;48.780;9.146;2024-01-06T06:00:37;4.40;99.90
7512;DHT22;9999;48.780;9.146;2024-01-06T06:03:04;4.40;99.90
7512;DHT22;9999;48.780;9.146;2024-01-06T06:05:34;4.50;99.90
7512;DHT22;9999;48.780;9.146;2024-01-06T06:08:01;4.40;99.90
7512;DHT22;9999;48.780;9.146;2024-01-06T06:10:28;4.50;99.90
7512;DHT22;9999;48.780;9.146;2024-01-06T06:13:06;4.50;99.90
7512;DHT22;9999;48.780;9.146;2024-01-06T06:15:35;4.50;99.90
7512;DHT22;9999;48.780;9.146;2024-01-06T06:18:02;4.60;99.90
7512;DHT22;9999;48.780;9.146;2024-01-06T06:20:28;4.60;99.90
7512;DHT22;9999;48.780;9.146;2024-01-06T06:22:57;4.60;99.90
7512;DHT22;9999;48.780;9.146;2024-01-06T06:25:23;4.50;99.90
7512;DHT22;9999;48.780;9.146;2024-01-06T06:27:51;4.60;99.90
7512;DHT22;9999;48.780;9.146;2024-01-06T06:30:18;4.60;99.90
7512;DHT22;9999;48.780;9.146;2024-01-06T06:32:44;4.60;99.90
7512;DHT22;9999;48.780;9.146;2024-01-06T06:35:12;4.60;99.90
7512;DHT22;9999;48.780;9.146;2024-01-06T06:37:39;4.60;99.90
7512;DHT22;9999;48.780;9.146;2024-01-06T06:40:08;4.60;99.90
7512;DHT22;9999;48.780;9.146;2024-01-06T06:42:35;4.60;99.90
7512;DHT22;9999;48.780;9.146;2024-01-06T06:45:02;4.50;99.90
7512;DHT22;9999;48.780;9.146;2024-01-06T06:47:28;4.40;99.90
7512;DHT22;9999;48.780;9.146;2024-01-06T06:49:55;4.50;99.90
7512;DHT22;9999;48.780;9.146;2024-01-06T06:52:22;4.50;99.90
7512;DHT22;9999;48.780;9.146;2024-01-06T06:54:49;4.50;99.90
7512;DHT22;9999;48.780;9.146;2024-01-06T06:57:19;4.40;99.90
7512;DHT22;9999;48.780;9.146;2024-01-06T06:59:46;4.50;99.90
7512;DHT22;9999;48.780;9.146;2024-01-06T07:02:13;4.60;99.90
7512;DHT22;9999;48.780;9.146;2024-01-06T07:04:40;4.60;99.90
7512;DHT22;9999;48.780;9.146;2024-01-06T07:07:06;4.50;99.90
7512;DHT22;9999;48.780;9.146;2024-01-06T07:09:33;4.50;99.90
7512;DHT22;9999;48.780;9.146;2024-01-06T07:12:00;4.50;99.90
7512;DHT22;9999;48.780;9.146;2024-01-06T07:14:28;4.50;99.90
7512;DHT22;9999;48.780;9.146;2024-01-06T07:16:55;4.60;99.90
7512;DHT22;9999;48.780;9.146;2024-01-06T07:19:21;4.60;99.90
7512;DHT22;9999;48.780;9.146;2024-01-06T07:21:48;4.60;99.90
7512;DHT22;9999;48.780;9.146;2024-01-06T07:24:15;4.60;99.90
7512;DHT22;9999;48.780;9.146;2024-01-06T07:26:42;4.60;99.90
7512;DHT22;9999;48.780;9.146;2024-01-06T07:29:08;4.70;99.90
7512;DHT22;9999;48.780;9.146;2024-01-06T07:31:37;4.70;99.90
7512;DHT22;9999;48.780;9.146;2024-01-06T07:34:04;4.70;99.90
7512;DHT22;9999;48.780;9.146;2024-01-06T07:36:31;4.70;99.90
7512;DHT22;9999;48.780;9.146;2024-01-06T07:38:58;4.70;99.90
7512;DHT22;9999;48.780;9.146;2024-01-06T07:41:25;4.60;99.90
7512;DHT22;9999;48.780;9.146;2024-01-06T07:43:51;4.60;99.90
7512;DHT22;9999;48.780;9.146;2024-01-06T07:46:18;4.50;99.90
7512;DHT22;9999;48.780;9.146;2024-01-06T07:48:46;4.50;99.90
7512;DHT22;9999;48.780;9.146;2024-01-06T07:51:13;4.50;99.90
7512;DHT22;9999;48.780;9.146;2024-01-06T07:53:40;4.60;99.90
7512;DHT22;9999;48.780;9.146;2024-01-06T07:56:08;4.60;99.90
7512;DHT22;9999;48.780;9.146;2024-01-06T07:58:34;4.70;99.90
7512;DHT22;9999;48.780;9.146;2024-01-06T08:01:01;4.70;99.90
7512;DHT22;9999;48.780;9.146;2024-01-06T08:03:28;4.50;99.90
7512;DHT22;9999;48.780;9.146;2024-01-06T08:05:56;4.60;99.90
7512;DHT22;9999;48.780;9.146;2024-01-06T08:08:23;4.60;99.90
7512;DHT22;9999;48.780;9.146;2024-01-06T08:10:49;4.50;99.90
7512;DHT22;9999;48.780;9.146;2024-01-06T08:13:16;4.60;99.90
7512;DHT22;9999;48.780;9.146;2024-01-06T08:15:43;4.60;99.90
7512;DHT22;9999;48.780;9.146;2024-01-06T08:18:10;4.70;99.90
7512;DHT22;9999;48.780;9.146;2024-01-06T08:20:36;4.60;99.90
7512;DHT22;9999;48.780;9.146;2024-01-06T08:23:04;4.70;99.90
7512;DHT22;9999;48.780;9.146;2024-01-06T08:25:31;4.70;99.90
7512;DHT22;9999;48.780;9.146;2024-01-06T08:27:58;4.60;99.90
7512;DHT22;9999;48.780;9.146;2024-01-06T08:30:25;4.70;99.90
7512;DHT22;9999;48.780;9.146;2024-01-06T08:32:51;4.70;99.90
7512;DHT22;9999;48.780;9.146;2024-01-06T08:35:18;4.70;99.90
7512;DHT22;9999;48.780;9.146;2024-01-06T08:37:45;4.70;99.90
7512;DHT22;9999;48.780;9.146;2024-01-06T08:40:13;4.70;99.90
7512;DHT22;9999;48.780;9.146;2024-01-06T08:42:40;4.80;99.90
7512;DHT22;9999;48.780;9.146;2024-01-06T08:45:08;4.70;99.90
7512;DHT22;9999;48.780;9.146;2024-01-06T08:47:35;4.70;99.90
7512;DHT22;9999;48.780;9.146;2024-01-06T08:50:02;4.80;99.90
7512;DHT22;9999;48.780;9.146;2024-01-06T08:52:29;4.80;99.90
7512;DHT22;9999;48.780;9.146;2024-01-06T08:54:56;4.80;99.90
7512;DHT22;9999;48.780;9.146;2024-01-06T08:57:24;4.80;99.90
7512;DHT22;9999;48.780;9.146;2024-01-06T08:59:51;4.90;99.90
7512;DHT22;9999;48.780;9.146;2024-01-06T09:02:18;4.90;99.90
7512;DHT22;9999;48.780;9.146;2024-01-06T09:04:45;4.90;99.90
7512;DHT22;9999;48.780;9.146;2024-01-06T09:07:12;5.00;99.90
7512;DHT22;9999;48.780;9.146;2024-01-06T09:09:38;5.00;99.90
7512;DHT22;9999;48.780;9.146;2024-01-06T09:12:06;5.00;99.90
7512;DHT22;9999;48.780;9.146;2024-01-06T09:14:34;5.10;99.90
7512;DHT22;9999;48.780;9.146;2024-01-06T09:17:01;5.10;99.90
7512;DHT22;9999;48.780;9.146;2024-01-06T09:19:27;5.10;99.90
7512;DHT22;9999;48.780;9.146;2024-01-06T09:21:54;5.10;99.90
7512;DHT22;9999;48.780;9.146;2024-01-06T09:24:21;5.20;99.90
7512;DHT22;9999;48.780;9.146;2024-01-06T09:26:48;5.20;99.90
7512;DHT22;9999;48.780;9.146;2024-01-06T09:29:15;5.30;99.90
7512;DHT22;9999;48.780;9.146;2024-01-06T09:31:44;5.30;99.90
7512;DHT22;9999;48.780;9.146;2024-01-06T09:34:10;5.40;99.90
7512;DHT22;9999;48.780;9.146;2024-01-06T09:36:38;5.40;99.90
7512;DHT22;9999;48.780;9.146;2024-01-06T09:39:05;5.40;99.90
7512;DHT22;9999;48.780;9.146;2024-01-06T09:41:33;5.30;99.90
7512;DHT22;9999;48.780;9.146;2024-01-06T09:44:00;5.40;99.90
7512;DHT22;9999;48.780;9.146;2024-01-06T09:46:28;5.40;99.90
7512;DHT22;9999;48.780;9.146;2024-01-06T09:48:57;5.40;99.90
7512;DHT22;9999;48.780;9.146;2024-01-06T09:51:25;5.50;99.90
7512;DHT22;9999;48.780;9.146;2024-01-06T09:53:57;5.50;99.90
7512;DHT22;9999;48.780;9.146;2024-01-06T09:56:25;5.60;99.90
7512;DHT22;9999;48.780;9.146;2024-01-06T09:58:52;5.60;99.90
7512;DHT22;9999;48.780;9.146;2024-01-06T10:01:19;5.60;99.90
7512;DHT22;9999;48.780;9.146;2024-01-06T10:03:46;5.50;99.90
7512;DHT22;9999;48.780;9.146;2024-01-06T10:06:15;5.60;99.90
7512;DHT22;9999;48.780;9.146;2024-01-06T10:08:42;5.50;99.90
7512;DHT22;9999;48.780;9.146;2024-01-06T10:11:09;5.50;99.90
7512;DHT22;9999;48.780;9.146;2024-01-06T10:13:36;5.60;99.90
7512;DHT22;9999;48.780;9.146;2024-01-06T10:16:04;5.50;99.90
7512;DHT22;9999;48.780;9.146;2024-01-06T10:18:31;5.50;99.90
7512;DHT22;9999;48.780;9.146;2024-01-06T10:20:58;5.50;99.90
7512;DHT22;9999;48.780;9.146;2024-01-06T10:23:27;5.60;99.90
7512;DHT22;9999;48.780;9.146;2024-01-06T10:25:55;5.60;99.90
7512;DHT22;9999;48.780;9.146;2024-01-06T10:28:22;5.60;99.90
7512;DHT22;9999;48.780;9.146;2024-01-06T10:30:51;5.50;99.90
7512;DHT22;9999;48.780;9.146;2024-01-06T10:33:19;5.60;99.90
7512;DHT22;9999;48.780;9.146;2024-01-06T10:35:46;5.50;99.90
7512;DHT22;9999;48.780;9.146;2024-01-06T10:38:13;5.50;99.90
7512;DHT22;9999;48.780;9.146;2024-01-06T10:40:55;5.50;99.90
7512;DHT22;9999;48.780;9.146;2024-01-06T10:43:24;5.50;99.90
7512;DHT22;9999;48.780;9.146;2024-01-06T10:45:51;5.60;99.90
7512;DHT22;9999;48.780;9.146;2024-01-06T10:48:20;5.60;99.90
7512;DHT22;9999;48.780;9.146;2024-01-06T10:50:49;5.70;99.90
7512;DHT22;9999;48.780;9.146;2024-01-06T10:53:17;5.70;99.90
7512;DHT22;9999;48.780;9.146;2024-01-06T10:55:46;5.80;99.90
7512;DHT22;9999;48.780;9.146;2024-01-06T10:58:17;5.70;99.90
7512;DHT22;9999;48.780;9.146;2024-01-06T11:00:44;5.70;99.90
7512;DHT22;9999;48.780;9.146;2024-01-06T11:03:14;5.70;99.90
7512;DHT22;9999;48.780;9.146;2024-01-06T11:05:41;5.70;99.90
7512;DHT22;9999;48.780;9.146;2024-01-06T11:08:08;5.70;99.90
7512;DHT22;9999;48.780;9.146;2024-01-06T11:10:36;5.70;99.90
7512;DHT22;9999;48.780;9.146;2024-01-06T11:13:10;5.80;99.90
7512;DHT22;9999;48.780;9.146;2024-01-06T11:15:42;5.70;99.90
7512;DHT22;9999;48.780;9.146;2024-01-06T11:18:30;5.80;99.90
7512;DHT22;9999;48.780;9.146;2024-01-06T11:21:15;5.70;99.90
7512;DHT22;9999;48.780;9.146;2024-01-06T11:23:44;5.80;99.90
7512;DHT22;9999;48.780;9.146;2024-01-06T11:26:13;5.70;99.90
7512;DHT22;9999;48.780;9.146;2024-01-06T11:28:45;5.70;99.90
7512;DHT22;9999;48.780;9.146;2024-01-06T11:31:13;5.70;99.90
7512;DHT22;9999;48.780;9.146;2024-01-06T11:33:43;5.70;99.90
7512;DHT22;9999;48.780;9.146;2024-01-06T11:36:10;5.60;99.90
7512;DHT22;9999;48.780;9.146;2024-01-06T11:38:38;5.70;99.90
7512;DHT22;9999;48.780;9.146;2024-01-06T11:41:06;5.80;99.90
7512;DHT22;9999;48.780;9.146;2024-01-06T11:43:34;5.80;99.90
7512;DHT22;9999;48.780;9.146;2024-01-06T11:46:05;5.70;99.90
7512;DHT22;9999;48.780;9.146;2024-01-06T11:48:33;5.70;99.90
7512;DHT22;9999;48.780;9.146;2024-01-06T11:51:00;5.80;99.90
7512;DHT22;9999;48.780;9.146;2024-01-06T11:53:28;5.80;99.90
7512;DHT22;9999;48.780;9.146;2024-01-06T11:55:55;5.90;99.90
7512;DHT22;9999;48.780;9.146;2024-01-06T11:58:28;5.90;99.90
7512;DHT22;9999;48.780;9.146;2024-01-06T12:00:56;5.90;99.90
7512;DHT22;9999;48.780;9.146;2024-01-06T12:03:24;5.90;99.90
7512;DHT22;9999;48.780;9.146;2024-01-06T12:06:00;6.00;99.90
7512;DHT22;9999;48.780;9.146;2024-01-06T12:08:28;6.00;99.90
7512;DHT22;9999;48.780;9.146;2024-01-06T12:11:02;5.90;99.90
7512;DHT22;9999;48.780;9.146;2024-01-06T12:13:28;5.90;99.90
7512;DHT22;9999;48.780;9.146;2024-01-06T12:15:55;5.90;99.90
7512;DHT22;9999;48.780;9.146;2024-01-06T12:18:25;5.90;99.90
7512;DHT22;9999;48.780;9.146;2024-01-06T12:20:52;5.80;99.90
7512;DHT22;9999;48.780;9.146;2024-01-06T12:23:25;5.80;99.90
7512;DHT22;9999;48.780;9.146;2024-01-06T12:25:53;5.80;99.90
7512;DHT22;9999;48.780;9.146;2024-01-06T12:28:20;5.80;99.90
7512;DHT22;9999;48.780;9.146;2024-01-06T12:30:47;5.70;99.90
7512;DHT22;9999;48.780;9.146;2024-01-06T12:33:14;5.70;99.90
7512;DHT22;9999;48.780;9.146;2024-01-06T12:35:42;5.70;99.90
7512;DHT22;9999;48.780;9.146;2024-01-06T12:38:09;5.70;99.90
7512;DHT22;9999;48.780;9.146;2024-01-06T12:40:36;5.70;99.90
7512;DHT22;9999;48.780;9.146;2024-01-06T12:43:04;5.70;99.90
7512;DHT22;9999;48.780;9.146;2024-01-06T12:45:30;5.70;99.90
7512;DHT22;9999;48.780;9.146;2024-01-06T12:48:00;5.60;99.90
7512;DHT22;9999;48.780;9.146;2024-01-06T12:50:27;5.70;99.90
7512;DHT22;9999;48.780;9.146;2024-01-06T12:52:55;5.70;99.90
7512;DHT22;9999;48.780;9.146;2024-01-06T12:55:21;5.80;99.90
7512;DHT22;9999;48.780;9.146;2024-01-06T12:57:48;5.80;99.90
7512;DHT22;9999;48.780;9.146;2024-01-06T13:00:16;5.80;99.90
7512;DHT22;9999;48.780;9.146;2024-01-06T13:02:43;5.80;99.90
7512;DHT22;9999;48.780;9.146;2024-01-06T13:05:10;5.90;99.90
7512;DHT22;9999;48.780;9.146;2024-01-06T13:07:38;5.80;99.90
7512;DHT22;9999;48.780;9.146;2024-01-06T13:10:07;5.90;99.90
7512;DHT22;9999;48.780;9.146;2024-01-06T13:12:34;5.80;99.90
7512;DHT22;9999;48.780;9.146;2024-01-06T13:15:01;5.70;99.90
7512;DHT22;9999;48.780;9.146;2024-01-06T13:17:28;5.70;99.90
7512;DHT22;9999;48.780;9.146;2024-01-06T13:19:55;5.60;99.90
7512;DHT22;9999;48.780;9.146;2024-01-06T13:22:22;5.60;99.90
7512;DHT22;9999;48.780;9.146;2024-01-06T13:24:49;5.50;99.90
7512;DHT22;9999;48.780;9.146;2024-01-06T13:27:17;5.50;99.90
7512;DHT22;9999;48.780;9.146;2024-01-06T13:29:44;5.50;99.90
7512;DHT22;9999;48.780;9.146;2024-01-06T13:32:11;5.60;99.90
7512;DHT22;9999;48.780;9.146;2024-01-06T13:34:39;5.50;99.90
7512;DHT22;9999;48.780;9.146;2024-01-06T13:37:06;5.50;99.90
7512;DHT22;9999;48.780;9.146;2024-01-06T13:39:33;5.50;99.90
7512;DHT22;9999;48.780;9.146;2024-01-06T13:42:01;5.50;99.90
7512;DHT22;9999;48.780;9.146;2024-01-06T13:44:30;5.60;99.90
7512;DHT22;9999;48.780;9.146;2024-01-06T13:46:57;5.50;99.90
7512;DHT22;9999;48.780;9.146;2024-01-06T13:49:23;5.50;99.90
7512;DHT22;9999;48.780;9.146;2024-01-06T13:51:50;5.50;99.90
7512;DHT22;9999;48.780;9.146;2024-01-06T13:54:17;5.60;99.90
7512;DHT22;9999;48.780;9.146;2024-01-06T13:56:44;5.60;99.90
7512;DHT22;9999;48.780;9.146;2024-01-06T13:59:12;5.60;99.90
7512;DHT22;9999;48.780;9.146;2024-01-06T14:01:40;5.60;99.90
7512;DHT22;9999;48.780;9.146;2024-01-06T14:04:07;5.40;99.90
7512;DHT22;9999;48.780;9.146;2024-01-06T14:06:34;5.40;99.90
7512;DHT22;9999;48.780;9.146;2024-01-06T14:09:01;5.40;99.90
7512;DHT22;9999;48.780;9.146;2024-01-06T14:11:28;5.40;99.90
7512;DHT22;9999;48.780;9.146;2024-01-06T14:13:57;5.40;99.90
7512;DHT22;9999;48.780;9.146;2024-01-06T14:16:24;5.30;99.90
7512;DHT22;9999;48.780;9.146;2024-01-06T14:18:52;5.30;99.90
7512;DHT22;9999;48.780;9.146;2024-01-06T14:21:20;5.50;99.90
7512;DHT22;9999;48.780;9.146;2024-01-06T14:23:47;5.50;99.90
7512;DHT22;9999;48.780;9.146;2024-01-06T14:26:18;5.50;99.90
7512;DHT22;9999;48.780;9.146;2024-01-06T14:28:45;5.50;99.90
7512;DHT22;9999;48.780;9.146;2024-01-06T14:31:12;5.40;99.90
7512;DHT22;9999;48.780;9.146;2024-01-06T14:33:39;5.40;99.90
7512;DHT22;9999;48.780;9.146;2024-01-06T14:36:07;5.40;99.90
7512;DHT22;9999;48.780;9.146;2024-01-06T14:38:34;5.30;99.90
7512;DHT22;9999;48.780;9.146;2024-01-06T14:41:01;5.40;99.90
7512;DHT22;9999;48.780;9.146;2024-01-06T14:43:28;5.40;99.90
7512;DHT22;9999;48.780;9.146;2024-01-06T14:45:55;5.40;99.90
7512;DHT22;9999;48.780;9.146;2024-01-06T14:48:22;5.40;99.90
7512;DHT22;9999;48.780;9.146;2024-01-06T14:50:49;5.20;99.90
7512;DHT22;9999;48.780;9.146;2024-01-06T14:53:18;5.30;99.90
7512;DHT22;9999;48.780;9.146;2024-01-06T14:55:44;5.30;99.90
7512;DHT22;9999;48.780;9.146;2024-01-06T14:58:11;5.30;99.90
7512;DHT22;9999;48.780;9.146;2024-01-06T15:00:38;5.30;99.90
7512;DHT22;9999;48.780;9.146;2024-01-06T15:03:04;5.30;99.90
7512;DHT22;9999;48.780;9.146;2024-01-06T15:05:31;5.20;99.90
7512;DHT22;9999;48.780;9.146;2024-01-06T15:07:58;5.20;99.90
7512;DHT22;9999;48.780;9.146;2024-01-06T15:10:26;5.20;99.90
7512;DHT22;9999;48.780;9.146;2024-01-06T15:12:53;5.30;99.90
7512;DHT22;9999;48.780;9.146;2024-01-06T15:15:20;5.20;99.90
7512;DHT22;9999;48.780;9.146;2024-01-06T15:17:46;5.20;99.90
7512;DHT22;9999;48.780;9.146;2024-01-06T15:20:13;5.30;99.90
7512;DHT22;9999;48.780;9.146;2024-01-06T15:22:40;5.30;99.90
7512;DHT22;9999;48.780;9.146;2024-01-06T15:25:07;5.30;99.90
7512;DHT22;9999;48.780;9.146;2024-01-06T15:27:36;5.20;99.90
7512;DHT22;9999;48.780;9.146;2024-01-06T15:30:04;5.20;99.90
7512;DHT22;9999;48.780;9.146;2024-01-06T15:32:34;5.20;99.90
7512;DHT22;9999;48.780;9.146;2024-01-06T15:35:01;5.30;99.90
7512;DHT22;9999;48.780;9.146;2024-01-06T15:37:28;5.20;99.90
7512;DHT22;9999;48.780;9.146;2024-01-06T15:39:55;5.30;99.90
7512;DHT22;9999;48.780;9.146;2024-01-06T15:42:22;5.20;99.90
7512;DHT22;9999;48.780;9.146;2024-01-06T15:44:50;5.30;99.90
7512;DHT22;9999;48.780;9.146;2024-01-06T15:47:17;5.30;99.90
7512;DHT22;9999;48.780;9.146;2024-01-06T15:49:44;5.20;99.90
7512;DHT22;9999;48.780;9.146;2024-01-06T15:52:10;5.20;99.90
7512;DHT22;9999;48.780;9.146;2024-01-06T15:54:37;5.20;99.90
7512;DHT22;9999;48.780;9.146;2024-01-06T15:57:04;5.20;99.90
7512;DHT22;9999;48.780;9.146;2024-01-06T15:59:31;5.30;99.90
7512;DHT22;9999;48.780;9.146;2024-01-06T16:01:59;5.20;99.90
7512;DHT22;9999;48.780;9.146;2024-01-06T16:04:25;5.20;99.90
7512;DHT22;9999;48.780;9.146;2024-01-06T16:06:52;5.20;99.90
7512;DHT22;9999;48.780;9.146;2024-01-06T16:09:19;5.20;99.90
7512;DHT22;9999;48.780;9.146;2024-01-06T16:11:50;5.20;99.90
7512;DHT22;9999;48.780;9.146;2024-01-06T16:14:17;5.30;99.90
7512;DHT22;9999;48.780;9.146;2024-01-06T16:16:44;5.30;99.90
7512;DHT22;9999;48.780;9.146;2024-01-06T16:19:12;5.30;99.90